Sugar Grove, North Carolina
Current Conditions -  °F | °C
As of 1:15 PM on Friday 19 Dec 2014 (Local Time) from KTNB Reporting Station
Overcast Overcast  
Wind Chill: 33°   Ceiling: 3700
Heat Index: 40°   Visibility: 10mi
Dew Point: 21°   Wind: 13mph
Humidity: 46%   Direction: 300°WNW
Pressure: 30.1"   Gusts: NA
Location:  36.26°N, 81.79°W
Report Text: KTNB 191815Z AUTO 30011KT 10SM OVC037 05/M06 A3010 RMK AO2 T00461061
Loading
Personal Weather Stations






























Interactive Weather Map New forecast layout! Learn more

10-Day Weather Forecast

Advertisements
Track Severe Weather on mobile